createdAt,value
2016-05-03T00:00:17.349Z,45
2016-05-03T00:01:18.461Z,45
2016-05-03T00:02:17.402Z,45
2016-05-03T00:03:16.451Z,45
2016-05-03T00:04:15.501Z,45
2016-05-03T00:05:14.551Z,45
2016-05-03T00:06:13.616Z,45
2016-05-03T00:07:12.587Z,45
2016-05-03T00:08:11.684Z,45
2016-05-03T00:09:10.748Z,45
2016-05-03T00:10:09.783Z,45
2016-05-03T00:11:10.973Z,45
2016-05-03T00:12:09.913Z,45
2016-05-03T00:13:08.948Z,45
2016-05-03T00:14:08.012Z,46
2016-05-03T00:15:07.421Z,45
2016-05-03T00:16:06.362Z,45
2016-05-03T00:17:05.395Z,45
2016-05-03T00:18:04.461Z,46
2016-05-03T00:19:03.776Z,45
2016-05-03T00:20:02.967Z,45
2016-05-03T00:21:03.875Z,45
2016-05-03T00:22:03.315Z,45
2016-05-03T00:23:01.975Z,46
2016-05-03T00:24:01.305Z,46
2016-05-03T00:25:00.526Z,46
2016-05-03T00:25:59.871Z,46
2016-05-03T00:26:59.174Z,46
2016-05-03T00:27:58.486Z,46
2016-05-03T00:28:57.787Z,46
2016-05-03T00:29:57.169Z,46
2016-05-03T00:30:58.171Z,46
2016-05-03T00:31:57.519Z,46
2016-05-03T00:32:56.788Z,46
2016-05-03T00:33:56.071Z,46
2016-05-03T00:34:55.370Z,46
2016-05-03T00:35:54.671Z,46
2016-05-03T00:36:54.126Z,46
2016-05-03T00:37:53.288Z,46
2016-05-03T00:38:52.619Z,46
2016-05-03T00:39:51.934Z,46
2016-05-03T00:40:52.952Z,46
2016-05-03T00:41:52.251Z,46
2016-05-03T00:42:51.552Z,46
2016-05-03T00:43:50.992Z,46
2016-05-03T00:44:50.166Z,46
2016-05-03T00:45:49.465Z,46
2016-05-03T00:46:48.765Z,46
2016-05-03T00:47:48.065Z,46
2016-05-03T00:48:47.381Z,46
2016-05-03T00:49:46.726Z,46
2016-05-03T00:50:47.745Z,46
2016-05-03T00:51:47.045Z,46
2016-05-03T00:52:46.453Z,46
2016-05-03T00:53:45.581Z,46
2016-05-03T00:54:44.943Z,46
2016-05-03T00:55:44.180Z,46
2016-05-03T00:56:43.542Z,46
2016-05-03T00:57:42.967Z,46
2016-05-03T00:58:42.157Z,46
2016-05-03T00:59:41.519Z,46
2016-05-03T01:00:42.459Z,46
2016-05-03T01:01:41.836Z,46
2016-05-03T01:02:41.137Z,46
2016-05-03T01:03:40.561Z,46
2016-05-03T01:04:39.735Z,46
2016-05-03T01:05:39.036Z,46
2016-05-03T01:06:38.335Z,46
2016-05-03T01:07:38.072Z,46
2016-05-03T01:08:36.965Z,46
2016-05-03T01:09:36.250Z,46
2016-05-03T01:10:37.314Z,46
2016-05-03T01:11:36.771Z,46
2016-05-03T01:12:35.929Z,46
2016-05-03T01:13:35.228Z,46
2016-05-03T01:14:34.529Z,46
2016-05-03T01:15:33.841Z,46
2016-05-03T01:16:33.171Z,46
2016-05-03T01:17:32.440Z,46
2016-05-03T01:18:31.676Z,46
2016-05-03T01:19:31.087Z,46
2016-05-03T01:20:32.245Z,46
2016-05-03T01:21:31.357Z,46
2016-05-03T01:22:31.406Z,46
2016-05-03T01:23:30.268Z,46
2016-05-03T01:24:29.600Z,46
2016-05-03T01:25:29.134Z,46
2016-05-03T01:26:28.558Z,46
2016-05-03T01:27:28.123Z,46
2016-05-03T01:28:27.689Z,46
2016-05-03T01:29:27.159Z,46
2016-05-03T01:30:28.241Z,46
2016-05-03T01:31:27.743Z,46
2016-05-03T01:32:27.418Z,46
2016-05-03T01:33:26.858Z,46
2016-05-03T01:34:26.361Z,46
2016-05-03T01:35:25.926Z,46
2016-05-03T01:36:25.553Z,46
2016-05-03T01:37:25.416Z,46
2016-05-03T01:38:24.763Z,46
2016-05-03T01:39:24.249Z,46
2016-05-03T01:40:25.299Z,46
2016-05-03T01:42:24.399Z,46
2016-05-03T01:43:23.932Z,46
2016-05-03T01:44:23.497Z,46
2016-05-03T01:45:23.046Z,46
2016-05-03T01:46:22.612Z,46
2016-05-03T01:47:22.193Z,46
2016-05-03T01:48:21.727Z,46
2016-05-03T01:49:21.448Z,46
2016-05-03T01:50:22.373Z,46
2016-05-03T01:51:21.923Z,46
2016-05-03T01:52:21.596Z,46
2016-05-03T01:53:21.022Z,46
2016-05-03T01:54:20.587Z,46
2016-05-03T01:55:20.136Z,46
2016-05-03T01:56:19.702Z,46
2016-05-03T01:57:19.251Z,47
2016-05-03T01:58:19.066Z,46
2016-05-03T01:59:18.694Z,47
2016-05-03T02:00:19.697Z,46
2016-05-03T02:01:19.262Z,46
2016-05-03T02:02:18.842Z,47
2016-05-03T02:03:18.736Z,47
2016-05-03T02:04:18.489Z,47
2016-05-03T02:05:18.242Z,47
2016-05-03T02:06:18.042Z,47
2016-05-03T02:07:17.871Z,47
2016-05-03T02:18:17.073Z,47
2016-05-03T02:19:16.919Z,47
2016-05-03T02:20:17.938Z,47
2016-05-03T02:21:17.691Z,47
2016-05-03T02:22:19.115Z,47
2016-05-03T02:23:17.477Z,47
2016-05-03T02:24:17.182Z,47
2016-05-03T02:25:16.982Z,47
2016-05-03T02:26:16.798Z,47
2016-05-03T02:27:16.598Z,47
2016-05-03T02:28:16.412Z,47
2016-05-03T02:29:16.275Z,47
2016-05-03T02:30:17.309Z,47
2016-05-03T02:31:17.046Z,47
2016-05-03T02:32:16.923Z,47
2016-05-03T02:33:16.722Z,47
2016-05-03T02:34:16.554Z,47
2016-05-03T02:35:16.353Z,47
2016-05-03T02:36:16.200Z,47
2016-05-03T02:37:16.046Z,47
2016-05-03T02:38:15.737Z,47
2016-05-03T02:39:15.645Z,47
2016-05-03T02:40:16.663Z,47
2016-05-03T02:41:16.588Z,47
2016-05-03T02:42:16.278Z,47
2016-05-03T02:43:16.109Z,47
2016-05-03T02:44:15.909Z,47
2016-05-03T02:45:15.708Z,47
2016-05-03T02:46:15.446Z,47
2016-05-03T02:47:15.386Z,47
2016-05-03T02:48:15.076Z,47
2016-05-03T02:49:15.000Z,47
2016-05-03T02:50:16.018Z,47
2016-05-03T02:51:15.835Z,47
2016-05-03T02:52:15.649Z,47
2016-05-03T02:53:15.449Z,47
2016-05-03T02:54:15.249Z,47
2016-05-03T02:55:15.096Z,47
2016-05-03T02:56:14.879Z,47
2016-05-03T02:57:14.694Z,47
2016-05-03T02:58:14.494Z,47
2016-05-03T02:59:14.512Z,47
2016-05-03T03:00:15.530Z,47
2016-05-03T03:01:15.220Z,47
2016-05-03T03:02:14.942Z,47
2016-05-03T03:03:14.945Z,47
2016-05-03T03:04:14.620Z,47
2016-05-03T03:05:14.418Z,47
2016-05-03T03:06:14.234Z,47
2016-05-03T03:07:14.393Z,47
2016-05-03T03:08:13.973Z,47
2016-05-03T03:09:13.663Z,47
2016-05-03T03:10:14.776Z,47
2016-05-03T03:11:14.684Z,47
2016-05-03T03:12:14.391Z,47
2016-05-03T03:13:14.174Z,47
2016-05-03T03:14:14.100Z,47
2016-05-03T03:15:13.805Z,47
2016-05-03T03:16:13.636Z,47
2016-05-03T03:17:13.451Z,47
2016-05-03T03:18:13.375Z,47
2016-05-03T03:19:13.081Z,47
2016-05-03T03:20:14.052Z,47
2016-05-03T03:21:13.961Z,47
2016-05-03T03:22:13.761Z,47
2016-05-03T03:23:13.577Z,47
2016-05-03T03:24:13.344Z,47
2016-05-03T03:25:13.160Z,47
2016-05-03T03:26:13.224Z,47
2016-05-03T03:27:13.321Z,47
2016-05-03T03:28:13.105Z,47
2016-05-03T03:29:12.921Z,47
2016-05-03T03:30:14.018Z,47
2016-05-03T03:31:13.802Z,47
2016-05-03T03:32:13.991Z,47
2016-05-03T03:33:13.948Z,47
2016-05-03T03:34:14.137Z,47
2016-05-03T03:35:14.062Z,47
2016-05-03T03:36:14.127Z,47
2016-05-03T03:37:14.114Z,47
2016-05-03T03:38:14.257Z,47
2016-05-03T03:39:14.370Z,47
2016-05-03T03:40:15.387Z,47
2016-05-03T03:41:15.562Z,47
2016-05-03T03:42:15.628Z,47
2016-05-03T03:43:15.521Z,47
2016-05-03T03:44:15.634Z,47
2016-05-03T03:45:15.635Z,47
2016-05-03T03:46:15.872Z,47
2016-05-03T03:47:15.766Z,47
2016-05-03T03:48:16.003Z,47
2016-05-03T03:49:16.005Z,47
2016-05-03T03:50:17.040Z,47
2016-05-03T03:51:17.089Z,47
2016-05-03T03:52:17.155Z,47
2016-05-03T03:53:17.344Z,47
2016-05-03T03:54:17.285Z,47
2016-05-03T03:55:17.334Z,47
2016-05-03T03:56:17.400Z,47
2016-05-03T03:57:17.480Z,47
2016-05-03T03:58:17.545Z,47
2016-05-03T03:59:17.657Z,47
2016-05-03T04:00:18.676Z,47
2016-05-03T04:01:18.851Z,47
2016-05-03T04:02:18.791Z,47
2016-05-03T04:03:18.996Z,47
2016-05-03T04:04:18.921Z,47
2016-05-03T04:05:19.034Z,47
2016-05-03T04:06:19.052Z,47
2016-05-03T04:07:19.117Z,47
2016-05-03T04:08:19.166Z,47
2016-05-03T04:09:19.294Z,47
2016-05-03T04:10:20.437Z,47
2016-05-03T04:11:20.503Z,47
2016-05-03T04:12:20.396Z,47
2016-05-03T04:13:20.509Z,47
2016-05-03T04:14:20.572Z,47
2016-05-03T04:15:20.622Z,47
2016-05-03T04:16:20.813Z,47
2016-05-03T04:17:20.691Z,47
2016-05-03T04:18:20.756Z,47
2016-05-03T04:19:20.961Z,47
2016-05-03T04:20:21.964Z,47
2016-05-03T04:21:22.081Z,47
2016-05-03T04:22:22.317Z,47
2016-05-03T04:23:22.242Z,47
2016-05-03T04:24:22.369Z,47
2016-05-03T04:25:22.482Z,47
2016-05-03T04:26:22.574Z,47
2016-05-03T04:27:22.734Z,47
2016-05-03T04:28:22.705Z,47
2016-05-03T04:29:22.850Z,47
2016-05-03T04:30:23.932Z,47
2016-05-03T04:32:24.036Z,47
2016-05-03T04:33:24.046Z,47
2016-05-03T04:34:24.180Z,47
2016-05-03T04:35:24.251Z,47
2016-05-03T04:36:24.305Z,47
2016-05-03T04:37:24.389Z,47
2016-05-03T04:38:24.566Z,47
2016-05-03T04:39:24.680Z,47
2016-05-03T04:40:25.592Z,47
2016-05-03T04:41:25.769Z,47
2016-05-03T04:42:25.725Z,47
2016-05-03T04:43:25.713Z,47
2016-05-03T04:44:25.982Z,47
2016-05-03T04:45:25.908Z,47
2016-05-03T04:46:25.958Z,47
2016-05-03T04:47:26.023Z,47
2016-05-03T04:48:26.214Z,47
2016-05-03T04:49:26.326Z,47
2016-05-03T04:50:27.235Z,47
2016-05-03T04:51:27.395Z,47
2016-05-03T04:52:27.819Z,47
2016-05-03T04:53:27.415Z,47
2016-05-03T04:54:27.481Z,47
2016-05-03T04:55:27.656Z,47
2016-05-03T04:56:27.612Z,47
2016-05-03T04:57:27.598Z,47
2016-05-03T04:58:27.835Z,47
2016-05-03T04:59:27.854Z,47
2016-05-03T05:00:28.887Z,47
2016-05-03T05:01:29.062Z,47
2016-05-03T05:02:29.128Z,47
2016-05-03T05:03:29.006Z,47
2016-05-03T05:04:29.055Z,47
2016-05-03T05:05:29.198Z,47
2016-05-03T05:06:29.263Z,47
2016-05-03T05:07:29.453Z,47
2016-05-03T05:08:29.331Z,47
2016-05-03T05:09:29.506Z,47
2016-05-03T05:10:30.492Z,47
2016-05-03T05:11:30.308Z,47
2016-05-03T05:12:30.170Z,47
2016-05-03T05:13:29.985Z,47
2016-05-03T05:14:29.878Z,47
2016-05-03T05:15:29.616Z,47
2016-05-03T05:16:29.368Z,47
2016-05-03T05:17:29.168Z,47
2016-05-03T05:18:28.968Z,47
2016-05-03T05:19:28.845Z,47
2016-05-03T05:20:29.863Z,47
2016-05-03T05:21:29.851Z,47
2016-05-03T05:22:29.697Z,47
2016-05-03T05:23:29.543Z,47
2016-05-03T05:24:29.546Z,47
2016-05-03T05:25:29.518Z,47
2016-05-03T05:26:29.207Z,47
2016-05-03T05:27:28.960Z,47
2016-05-03T05:28:28.837Z,47
2016-05-03T05:29:28.809Z,47
2016-05-03T05:30:29.734Z,47
2016-05-03T05:31:29.534Z,47
2016-05-03T05:32:29.333Z,47
2016-05-03T05:33:29.086Z,47
2016-05-03T05:34:28.948Z,47
2016-05-03T05:35:28.888Z,47
2016-05-03T05:36:28.609Z,47
2016-05-03T05:37:28.722Z,47
2016-05-03T05:38:28.192Z,47
2016-05-03T05:39:28.196Z,47
2016-05-03T05:40:29.089Z,47
2016-05-03T05:41:28.888Z,47
2016-05-03T05:42:28.688Z,47
2016-05-03T05:43:28.503Z,47
2016-05-03T05:44:28.302Z,47
2016-05-03T05:45:28.133Z,47
2016-05-03T05:46:27.933Z,47
2016-05-03T05:47:27.749Z,47
2016-05-03T05:48:27.548Z,47
2016-05-03T05:49:27.441Z,47
2016-05-03T05:50:28.429Z,47
2016-05-03T05:51:28.244Z,47
2016-05-03T05:52:27.980Z,47
2016-05-03T05:53:27.843Z,47
2016-05-03T05:54:27.658Z,47
2016-05-03T05:55:27.629Z,47
2016-05-03T05:56:27.398Z,47
2016-05-03T05:57:27.088Z,47
2016-05-03T05:58:27.012Z,47
2016-05-03T05:59:26.703Z,47
2016-05-03T06:00:27.956Z,47
2016-05-03T06:01:27.583Z,47
2016-05-03T06:02:27.398Z,47
2016-05-03T06:03:27.150Z,47
2016-05-03T06:04:27.123Z,47
2016-05-03T06:05:26.860Z,47
2016-05-03T06:06:26.628Z,47
2016-05-03T06:07:26.442Z,47
2016-05-03T06:08:26.242Z,47
2016-05-03T06:09:26.105Z,47
2016-05-03T06:10:27.123Z,47
2016-05-03T06:11:26.876Z,47
2016-05-03T06:12:26.738Z,47
2016-05-03T06:13:26.552Z,47
2016-05-03T06:14:26.353Z,47
2016-05-03T06:15:26.167Z,47
2016-05-03T06:16:25.983Z,47
2016-05-03T06:17:25.720Z,47
2016-05-03T06:18:25.598Z,47
2016-05-03T06:19:25.460Z,47
2016-05-03T06:20:26.588Z,47
2016-05-03T06:21:26.293Z,46
2016-05-03T06:22:26.265Z,46
2016-05-03T06:23:25.393Z,46
2016-05-03T06:24:25.083Z,46
2016-05-03T06:25:24.507Z,46
2016-05-03T06:26:24.181Z,46
2016-05-03T06:27:23.732Z,46
2016-05-03T06:28:22.952Z,46
2016-05-03T06:29:22.534Z,46
2016-05-03T06:30:23.552Z,46
2016-05-03T06:31:22.851Z,46
2016-05-03T06:32:22.135Z,46
2016-05-03T06:33:21.560Z,46
2016-05-03T06:34:20.734Z,46
2016-05-03T06:35:20.034Z,46
2016-05-03T06:36:19.334Z,46
2016-05-03T06:37:18.618Z,46
2016-05-03T06:38:17.963Z,46
2016-05-03T06:39:17.295Z,46
2016-05-03T06:40:18.422Z,46
2016-05-03T06:41:17.550Z,46
2016-05-03T06:42:16.912Z,45
2016-05-03T06:43:15.900Z,45
2016-05-03T06:44:15.042Z,45
2016-05-03T06:45:14.060Z,45
2016-05-03T06:46:13.204Z,45
2016-05-03T06:47:12.113Z,45
2016-05-03T06:48:10.928Z,45
2016-05-03T06:49:09.791Z,45
2016-05-03T06:50:10.793Z,45
2016-05-03T06:51:09.593Z,45
2016-05-03T06:52:08.392Z,45
2016-05-03T06:53:07.176Z,45
2016-05-03T06:54:05.976Z,45
2016-05-03T06:55:04.694Z,45
2016-05-03T06:56:03.571Z,45
2016-05-03T06:57:02.450Z,45
2016-05-03T06:58:01.124Z,45
2016-05-03T06:58:59.971Z,45
2016-05-03T07:00:00.927Z,45
2016-05-03T07:00:59.788Z,45
2016-05-03T07:01:58.573Z,45
2016-05-03T07:02:57.326Z,45
2016-05-03T07:03:56.265Z,45
2016-05-03T07:04:54.893Z,45
2016-05-03T07:05:53.740Z,45
2016-05-03T07:06:52.540Z,45
2016-05-03T07:07:51.729Z,44
2016-05-03T07:08:49.920Z,44
2016-05-03T07:09:50.937Z,44
2016-05-03T07:10:49.472Z,44
2016-05-03T07:11:47.943Z,44
2016-05-03T07:12:46.665Z,44
2016-05-03T07:13:45.215Z,44
2016-05-03T07:14:43.748Z,44
2016-05-03T07:15:42.158Z,44
2016-05-03T07:16:40.691Z,44
2016-05-03T07:17:39.241Z,44
2016-05-03T07:18:37.884Z,44
2016-05-03T07:19:38.964Z,44
2016-05-03T07:20:37.389Z,45
2016-05-03T07:21:36.189Z,45
2016-05-03T07:22:35.161Z,45
2016-05-03T07:23:33.757Z,45
2016-05-03T07:24:32.541Z,45
2016-05-03T07:25:31.356Z,45
2016-05-03T07:26:30.140Z,45
2016-05-03T07:27:28.940Z,45
2016-05-03T07:28:27.801Z,45
2016-05-03T07:29:28.789Z,45
2016-05-03T07:30:27.588Z,45
2016-05-03T07:31:26.372Z,45
2016-05-03T07:32:25.172Z,45
2016-05-03T07:33:23.956Z,45
2016-05-03T07:34:22.755Z,45
2016-05-03T07:35:21.539Z,45
2016-05-03T07:36:20.339Z,45
2016-05-03T07:37:19.248Z,45
2016-05-03T07:38:17.906Z,45
2016-05-03T07:39:18.988Z,45
2016-05-03T07:40:17.787Z,45
2016-05-03T07:41:16.587Z,45
2016-05-03T07:42:15.356Z,45
2016-05-03T07:43:14.217Z,45
2016-05-03T07:44:13.064Z,45
2016-05-03T07:45:11.736Z,45
2016-05-03T07:46:10.659Z,45
2016-05-03T07:47:09.287Z,45
2016-05-03T07:48:08.197Z,45
2016-05-03T07:49:09.153Z,44
2016-05-03T07:50:07.858Z,44
2016-05-03T07:51:06.283Z,44
2016-05-03T07:52:04.770Z,44
2016-05-03T07:53:03.413Z,44
2016-05-03T07:54:02.150Z,44
2016-05-03T07:55:00.466Z,44
2016-05-03T07:55:59.094Z,44
2016-05-03T07:56:57.627Z,44
2016-05-03T07:57:56.113Z,44
2016-05-03T07:58:57.054Z,44
2016-05-03T07:59:55.588Z,44
2016-05-03T08:00:54.200Z,44
2016-05-03T08:01:52.719Z,44
2016-05-03T08:02:51.269Z,44
2016-05-03T08:03:49.943Z,44
2016-05-03T08:04:48.352Z,44
2016-05-03T08:05:46.824Z,44
2016-05-03T08:06:45.170Z,44
2016-05-03T08:07:43.985Z,44
2016-05-03T08:08:44.457Z,44
2016-05-03T08:09:42.928Z,44
2016-05-03T08:10:41.086Z,44
2016-05-03T08:11:39.512Z,44
2016-05-03T08:12:37.670Z,44
2016-05-03T08:13:35.984Z,44
2016-05-03T08:14:34.223Z,44
2016-05-03T08:15:32.506Z,44
2016-05-03T08:16:30.790Z,44
2016-05-03T08:17:29.153Z,44
2016-05-03T08:18:30.155Z,44
2016-05-03T08:19:28.439Z,44
2016-05-03T08:20:26.832Z,44
2016-05-03T08:21:25.006Z,44
2016-05-03T08:22:23.291Z,44
2016-05-03T08:23:21.637Z,44
2016-05-03T08:24:20.124Z,45
2016-05-03T08:25:18.908Z,45
2016-05-03T08:26:17.786Z,45
2016-05-03T08:27:16.554Z,45
2016-05-03T08:28:17.557Z,45
2016-05-03T08:29:16.278Z,45
2016-05-03T08:30:14.685Z,45
2016-05-03T08:31:14.016Z,44
2016-05-03T08:32:12.471Z,44
2016-05-03T08:33:11.302Z,44
2016-05-03T08:34:09.382Z,44
2016-05-03T08:35:07.541Z,44
2016-05-03T08:36:05.935Z,43
2016-05-03T08:37:04.015Z,43
2016-05-03T08:38:05.049Z,43
2016-05-03T08:39:02.677Z,43
2016-05-03T08:40:00.601Z,42
2016-05-03T08:41:02.182Z,42
2016-05-03T08:42:03.748Z,42
2016-05-03T08:43:05.047Z,42
2016-05-03T08:44:06.394Z,42
2016-05-03T08:45:07.585Z,42
2016-05-03T08:46:09.025Z,42
2016-05-03T08:47:10.308Z,41
2016-05-03T08:48:11.296Z,41
2016-05-03T08:49:12.376Z,41
2016-05-03T08:50:13.285Z,41
2016-05-03T08:51:13.928Z,41
2016-05-03T08:52:14.744Z,41
2016-05-03T08:53:15.605Z,41
2016-05-03T08:54:16.408Z,41
2016-05-03T08:55:17.348Z,41
2016-05-03T08:56:18.039Z,41
2016-05-03T08:57:18.900Z,40
2016-05-03T08:58:19.935Z,40
2016-05-03T08:59:20.500Z,40
2016-05-03T09:00:21.033Z,40
2016-05-03T09:01:21.083Z,40
2016-05-03T09:02:21.413Z,40
2016-05-03T09:03:21.729Z,40
2016-05-03T09:04:21.997Z,40
2016-05-03T09:05:22.297Z,40
2016-05-03T09:06:22.549Z,39
2016-05-03T09:07:22.662Z,39
2016-05-03T09:08:23.743Z,39
2016-05-03T09:09:23.776Z,39
2016-05-03T09:10:23.826Z,39
2016-05-03T09:11:23.891Z,39
2016-05-03T09:12:23.941Z,39
2016-05-03T09:13:23.990Z,39
2016-05-03T09:14:24.009Z,40
2016-05-03T09:15:24.495Z,40
2016-05-03T09:16:24.670Z,40
2016-05-03T09:17:25.048Z,40
2016-05-03T09:18:26.034Z,40
2016-05-03T09:19:26.350Z,40
2016-05-03T09:20:26.775Z,40
2016-05-03T09:21:26.980Z,40
2016-05-03T09:22:27.295Z,40
2016-05-03T09:23:27.705Z,40
2016-05-03T09:24:27.911Z,40
2016-05-03T09:25:28.225Z,40
2016-05-03T09:26:28.510Z,40
2016-05-03T09:27:29.028Z,40
2016-05-03T09:28:30.156Z,40
2016-05-03T09:29:30.689Z,40
2016-05-03T09:30:30.958Z,40
2016-05-03T09:31:30.851Z,40
2016-05-03T09:32:31.151Z,40
2016-05-03T09:33:31.434Z,40
2016-05-03T09:34:31.860Z,40
2016-05-03T09:35:32.299Z,40
2016-05-03T09:36:32.865Z,40
2016-05-03T09:37:33.618Z,40
2016-05-03T09:38:34.448Z,40
2016-05-03T09:39:34.998Z,40
2016-05-03T09:40:35.610Z,40
2016-05-03T09:41:36.300Z,40
2016-05-03T09:42:36.740Z,41
2016-05-03T09:43:37.587Z,41
2016-05-03T09:44:38.387Z,41
2016-05-03T09:45:39.217Z,41
2016-05-03T09:46:40.001Z,41
2016-05-03T09:47:40.879Z,41
2016-05-03T09:48:41.897Z,41
2016-05-03T09:49:42.712Z,41
2016-05-03T09:50:43.667Z,41
2016-05-03T09:51:44.390Z,41
2016-05-03T09:52:45.470Z,41
2016-05-03T09:53:45.910Z,41
2016-05-03T09:54:46.726Z,41
2016-05-03T09:55:47.619Z,40
2016-05-03T09:56:48.169Z,40
2016-05-03T09:57:48.781Z,40
2016-05-03T09:58:49.799Z,40
2016-05-03T09:59:50.255Z,40
2016-05-03T10:00:50.351Z,40
2016-05-03T10:01:50.745Z,40
2016-05-03T10:02:51.028Z,39
2016-05-03T10:03:51.077Z,39
2016-05-03T10:04:51.065Z,38
2016-05-03T10:05:51.052Z,38
2016-05-03T10:06:50.742Z,38
2016-05-03T10:07:50.682Z,38
2016-05-03T10:08:51.623Z,38
2016-05-03T10:09:51.421Z,38
2016-05-03T10:10:51.237Z,38
2016-05-03T10:11:51.037Z,38
2016-05-03T10:12:50.946Z,38
2016-05-03T10:13:50.761Z,38
2016-05-03T10:14:50.435Z,38
2016-05-03T10:15:50.251Z,38
2016-05-03T10:16:50.035Z,38
2016-05-03T10:17:50.022Z,38
2016-05-03T10:18:50.915Z,38
2016-05-03T10:19:50.730Z,38
2016-05-03T10:20:50.093Z,38
2016-05-03T10:21:50.314Z,38
2016-05-03T10:22:50.581Z,38
2016-05-03T10:23:49.538Z,38
2016-05-03T10:24:49.009Z,38
2016-05-03T10:25:48.512Z,38
2016-05-03T10:26:48.078Z,38
2016-05-03T10:27:47.705Z,37
2016-05-03T10:28:48.692Z,37
2016-05-03T10:29:47.992Z,37
2016-05-03T10:30:47.291Z,37
2016-05-03T10:31:46.575Z,37
2016-05-03T10:32:45.813Z,37
2016-05-03T10:33:45.174Z,38
2016-05-03T10:34:44.724Z,38
2016-05-03T10:35:44.274Z,37
2016-05-03T10:36:43.574Z,37
2016-05-03T10:37:42.872Z,37
2016-05-03T10:38:43.938Z,37
2016-05-03T10:39:43.222Z,38
2016-05-03T10:40:42.787Z,37
2016-05-03T10:41:42.087Z,37
2016-05-03T10:42:41.371Z,37
2016-05-03T10:43:40.670Z,37
2016-05-03T10:44:39.970Z,37
2016-05-03T10:45:39.269Z,37
2016-05-03T10:46:38.568Z,37
2016-05-03T10:47:37.931Z,37
2016-05-03T10:48:39.058Z,37
2016-05-03T10:49:38.264Z,37
2016-05-03T10:50:37.532Z,37
2016-05-03T10:51:36.817Z,38
2016-05-03T10:52:36.382Z,38
2016-05-03T10:53:35.884Z,38
2016-05-03T10:54:35.480Z,37
2016-05-03T10:55:34.718Z,37
2016-05-03T10:56:34.080Z,37
2016-05-03T10:57:33.426Z,37
2016-05-03T10:58:34.445Z,37
2016-05-03T10:59:33.744Z,37
2016-05-03T11:00:33.044Z,37
2016-05-03T11:01:32.344Z,37
2016-05-03T11:02:31.564Z,38
2016-05-03T11:03:31.208Z,37
2016-05-03T11:04:30.492Z,37
2016-05-03T11:05:29.776Z,37
2016-05-03T11:06:29.091Z,37
2016-05-03T11:07:30.125Z,37
2016-05-03T11:08:29.377Z,37
2016-05-03T11:09:28.678Z,37
2016-05-03T11:10:28.040Z,37
2016-05-03T11:11:27.354Z,37
2016-05-03T11:12:26.327Z,37
2016-05-03T11:13:25.578Z,37
2016-05-03T11:14:24.425Z,36
2016-05-03T11:15:23.271Z,37
2016-05-03T11:16:22.321Z,36
2016-05-03T11:17:21.165Z,36
2016-05-03T11:18:22.168Z,36
2016-05-03T11:19:20.967Z,36
2016-05-03T11:20:19.767Z,36
2016-05-03T11:21:18.487Z,36
2016-05-03T11:22:17.460Z,36
2016-05-03T11:23:16.556Z,36
2016-05-03T11:24:15.028Z,36
2016-05-03T11:25:13.703Z,36
2016-05-03T11:26:12.611Z,36
2016-05-03T11:27:11.348Z,36
2016-05-03T11:28:12.351Z,36
2016-05-03T11:29:11.259Z,36
2016-05-03T11:30:09.934Z,36
2016-05-03T11:31:08.719Z,36
2016-05-03T11:32:07.455Z,36
2016-05-03T11:33:06.052Z,36
2016-05-03T11:34:04.586Z,36
2016-05-03T11:35:03.182Z,36
2016-05-03T11:36:01.669Z,36
2016-05-03T11:37:00.188Z,36
2016-05-03T11:38:01.502Z,36
2016-05-03T11:38:59.802Z,36
2016-05-03T11:39:58.352Z,36
2016-05-03T11:40:57.213Z,36
2016-05-03T11:41:55.936Z,36
2016-05-03T11:42:54.469Z,36
2016-05-03T11:43:52.925Z,36
2016-05-03T11:44:51.538Z,36
2016-05-03T11:45:50.212Z,35
2016-05-03T11:46:48.401Z,35
2016-05-03T11:47:49.545Z,36
2016-05-03T11:48:48.001Z,36
2016-05-03T11:49:46.613Z,36
2016-05-03T11:50:45.038Z,36
2016-05-03T11:51:43.571Z,36
2016-05-03T11:52:42.231Z,36
2016-05-03T11:53:40.764Z,36
2016-05-03T11:54:39.174Z,36
2016-05-03T11:55:37.707Z,36
2016-05-03T11:56:36.304Z,36
2016-05-03T11:57:37.337Z,36
2016-05-03T11:58:36.106Z,36
2016-05-03T11:59:34.515Z,36
2016-05-03T12:00:33.189Z,36
2016-05-03T12:01:31.834Z,36
2016-05-03T12:02:30.258Z,36
2016-05-03T12:03:28.807Z,36
2016-05-03T12:04:27.338Z,36
2016-05-03T12:05:25.872Z,36
2016-05-03T12:06:24.578Z,36
2016-05-03T12:07:25.503Z,36
2016-05-03T12:08:24.194Z,36
2016-05-03T12:09:22.555Z,36
2016-05-03T12:10:21.214Z,36
2016-05-03T12:11:19.655Z,36
2016-05-03T12:12:18.172Z,36
2016-05-03T12:13:16.707Z,36
2016-05-03T12:14:15.255Z,36
2016-05-03T12:15:13.791Z,36
2016-05-03T12:16:12.386Z,36
2016-05-03T12:17:13.388Z,36
2016-05-03T12:18:11.985Z,36
2016-05-03T12:20:09.022Z,36
2016-05-03T12:21:07.666Z,36
2016-05-03T12:22:06.074Z,36
2016-05-03T12:23:05.202Z,36
2016-05-03T12:24:03.158Z,36
2016-05-03T12:25:01.693Z,36
2016-05-03T12:26:00.398Z,36
2016-05-03T12:27:01.290Z,35
2016-05-03T12:27:59.575Z,35
2016-05-03T12:28:57.890Z,35
2016-05-03T12:29:56.142Z,35
2016-05-03T12:30:54.364Z,35
2016-05-03T12:31:52.711Z,36
2016-05-03T12:32:51.245Z,36
2016-05-03T12:33:49.779Z,36
2016-05-03T12:34:48.437Z,36
2016-05-03T12:35:47.033Z,36
2016-05-03T12:36:47.927Z,36
2016-05-03T12:37:46.680Z,36
2016-05-03T12:38:45.636Z,36
2016-05-03T12:39:44.311Z,36
2016-05-03T12:40:43.032Z,36
2016-05-03T12:41:42.003Z,36
2016-05-03T12:42:40.787Z,36
2016-05-03T12:43:39.477Z,36
2016-05-03T12:44:38.260Z,36
2016-05-03T12:45:37.217Z,36
2016-05-03T12:46:38.127Z,36
2016-05-03T12:47:36.910Z,36
2016-05-03T12:48:35.819Z,36
2016-05-03T12:49:34.493Z,36
2016-05-03T12:50:33.293Z,36
2016-05-03T12:51:32.076Z,36
2016-05-03T12:52:30.876Z,36
2016-05-03T12:53:29.595Z,36
2016-05-03T12:54:28.395Z,36
2016-05-03T12:55:27.287Z,36
2016-05-03T12:56:28.368Z,36
2016-05-03T12:57:27.090Z,36
2016-05-03T12:58:25.890Z,36
2016-05-03T12:59:24.690Z,36
2016-05-03T13:00:23.490Z,36
2016-05-03T13:01:22.304Z,36
2016-05-03T13:02:21.073Z,36
2016-05-03T13:03:19.841Z,36
2016-05-03T13:04:18.578Z,36
2016-05-03T13:05:17.487Z,36
2016-05-03T13:06:18.505Z,36
2016-05-03T13:07:17.398Z,36
2016-05-03T13:08:16.072Z,36
2016-05-03T13:09:14.872Z,36
2016-05-03T13:10:13.672Z,36
2016-05-03T13:11:12.566Z,36
2016-05-03T13:12:11.241Z,36
2016-05-03T13:13:10.039Z,36
2016-05-03T13:14:08.839Z,36
2016-05-03T13:15:07.670Z,36
2016-05-03T13:16:08.688Z,36
2016-05-03T13:17:07.472Z,36
2016-05-03T13:18:06.271Z,36
2016-05-03T13:19:05.055Z,36
2016-05-03T13:20:03.855Z,36
2016-05-03T13:21:02.640Z,36
2016-05-03T13:22:01.470Z,36
2016-05-03T13:23:00.427Z,36
2016-05-03T13:23:59.336Z,36
2016-05-03T13:24:57.985Z,36
2016-05-03T13:25:58.877Z,36
2016-05-03T13:26:57.536Z,36
2016-05-03T13:27:56.014Z,36
2016-05-03T13:28:54.541Z,36
2016-05-03T13:29:53.382Z,36
2016-05-03T13:30:52.347Z,36
2016-05-03T13:31:51.172Z,36
2016-05-03T13:32:49.810Z,36
2016-05-03T13:33:48.671Z,36
2016-05-03T13:34:47.548Z,36
2016-05-03T13:35:48.565Z,36
2016-05-03T13:36:47.365Z,36
2016-05-03T13:37:46.235Z,36
2016-05-03T13:38:44.978Z,36
2016-05-03T13:39:43.768Z,36
2016-05-03T13:40:42.698Z,36
2016-05-03T13:41:41.346Z,36
2016-05-03T13:42:39.838Z,36
2016-05-03T13:43:38.435Z,36
2016-05-03T13:44:37.033Z,36
2016-05-03T13:45:38.054Z,36
2016-05-03T13:46:36.590Z,36
2016-05-03T13:47:35.140Z,36
2016-05-03T13:48:33.659Z,36
2016-05-03T13:49:32.206Z,36
2016-05-03T13:50:30.756Z,35
2016-05-03T13:51:29.151Z,35
2016-05-03T13:52:27.311Z,35
2016-05-03T13:53:25.594Z,35
2016-05-03T13:54:23.942Z,35
2016-05-03T13:55:25.070Z,35
2016-05-03T13:56:23.245Z,35
2016-05-03T13:57:21.529Z,35
2016-05-03T13:58:19.923Z,35
2016-05-03T13:59:18.097Z,35
2016-05-03T14:00:16.318Z,35
2016-05-03T14:01:14.681Z,35
2016-05-03T14:02:12.699Z,35
2016-05-03T14:03:10.765Z,35
2016-05-03T14:04:09.079Z,35
2016-05-03T14:05:10.082Z,35
2016-05-03T14:06:08.382Z,35
2016-05-03T14:07:06.603Z,35
2016-05-03T14:08:05.511Z,35
2016-05-03T14:09:03.234Z,35
2016-05-03T14:10:01.455Z,35
2016-05-03T14:10:59.817Z,35
2016-05-03T14:11:58.195Z,35
2016-05-03T14:12:56.323Z,35
2016-05-03T14:13:54.716Z,35
2016-05-03T14:14:55.734Z,35
2016-05-03T14:15:54.018Z,35
2016-05-03T14:16:52.302Z,35
2016-05-03T14:17:50.586Z,35
2016-05-03T14:18:48.869Z,35
2016-05-03T14:19:46.904Z,35
2016-05-03T14:20:45.125Z,35
2016-05-03T14:21:43.596Z,35